Time;durP1;ratioP1;P1;durP2;ratioP2;P2;SDS_P1;SDS_P2;PMS_P1;PMS_P2;Temp;Humidity;BMP_temperature;BMP_pressure;BME280_temperature;BME280_humidity;BME280_pressure;Samples;Min_cycle;Max_cycle;Signal;HPM_P1;HPM_P2
2023/09/12 00:00:15;;;;;;;3.63;3.33;;;;;25.70;100236.00;;;;2098082;28;20261;-68
2023/09/12 00:01:15;;;;;;;3.10;2.80;;;;;25.70;100232.00;;;;2076798;28;20590;-68
2023/09/12 00:02:16;;;;;;;3.63;3.30;;;;;25.70;100229.00;;;;2093325;28;20212;-68
2023/09/12 00:03:20;;;;;;;3.27;3.07;;;;;25.60;100233.00;;;;2102290;28;20222;-68
2023/09/12 00:04:20;;;;;;;3.10;2.90;;;;;25.70;100232.00;;;;2098802;28;20244;-68
2023/09/12 00:05:21;;;;;;;3.10;2.80;;;;;25.60;100233.00;;;;2099078;28;20461;-68
2023/09/12 00:06:21;;;;;;;3.23;2.93;;;;;25.70;100230.00;;;;2085241;28;20582;-68
2023/09/12 00:07:21;;;;;;;3.43;3.10;;;;;25.60;100231.00;;;;2089429;28;20221;-68
2023/09/12 00:08:22;;;;;;;2.83;2.63;;;;;25.60;100226.00;;;;2094613;28;20266;-68
2023/09/12 00:09:22;;;;;;;3.17;2.90;;;;;25.60;100236.00;;;;2090141;28;20221;-68
2023/09/12 00:10:23;;;;;;;3.20;3.00;;;;;25.60;100231.00;;;;2089843;28;20282;-68
2023/09/12 00:11:25;;;;;;;3.90;3.33;;;;;25.70;100233.00;;;;2086348;28;20220;-68
2023/09/12 00:12:25;;;;;;;3.00;2.70;;;;;25.60;100230.00;;;;2095863;28;20220;-68
2023/09/12 00:13:26;;;;;;;3.37;3.07;;;;;25.60;100225.00;;;;2096018;28;20527;-68
2023/09/12 00:14:26;;;;;;;3.20;2.90;;;;;25.70;100223.00;;;;2096408;28;20282;-68
2023/09/12 00:15:26;;;;;;;2.87;2.67;;;;;25.60;100227.00;;;;2096899;28;20294;-68
2023/09/12 00:16:27;;;;;;;3.40;3.10;;;;;25.60;100218.00;;;;2086066;28;20274;-68
2023/09/12 00:17:27;;;;;;;2.60;2.40;;;;;25.60;100215.00;;;;2094452;28;20228;-68
2023/09/12 00:18:27;;;;;;;3.23;2.93;;;;;25.60;100211.00;;;;2095527;28;20277;-68
2023/09/12 00:19:27;;;;;;;3.37;3.07;;;;;25.60;100217.00;;;;2096865;28;20232;-68
2023/09/12 00:20:28;;;;;;;2.90;2.70;;;;;25.70;100212.00;;;;2095460;28;20227;-68
2023/09/12 00:21:28;;;;;;;3.40;3.10;;;;;25.60;100205.00;;;;2085097;28;20244;-68
2023/09/12 00:22:28;;;;;;;2.83;2.63;;;;;25.60;100212.00;;;;2095053;28;20216;-68
2023/09/12 00:23:29;;;;;;;3.73;3.03;;;;;25.70;100205.00;;;;2095823;28;20758;-68
2023/09/12 00:24:29;;;;;;;3.60;2.90;;;;;25.60;100204.00;;;;2103310;28;20673;-68
2023/09/12 00:25:29;;;;;;;3.37;3.07;;;;;25.70;100204.00;;;;2097005;28;20220;-68
2023/09/12 00:26:30;;;;;;;3.30;3.00;;;;;25.60;100200.00;;;;2086762;28;20285;-68
2023/09/12 00:27:30;;;;;;;2.80;2.60;;;;;25.60;100198.00;;;;2096058;28;20258;-68
2023/09/12 00:28:31;;;;;;;3.53;3.23;;;;;25.60;100207.00;;;;2087509;28;20247;-68
2023/09/12 00:29:32;;;;;;;3.10;2.90;;;;;25.60;100209.00;;;;2087916;28;20217;-68
2023/09/12 00:30:32;;;;;;;3.10;2.90;;;;;25.60;100204.00;;;;2092890;28;20227;-68
2023/09/12 00:31:32;;;;;;;3.33;3.07;;;;;25.60;100211.00;;;;2089171;28;20454;-68
2023/09/12 00:32:33;;;;;;;3.17;2.97;;;;;25.70;100215.00;;;;2093953;28;20270;-68
2023/09/12 00:33:33;;;;;;;3.00;2.80;;;;;25.60;100219.00;;;;2098431;28;20223;-68
2023/09/12 00:34:33;;;;;;;2.73;2.53;;;;;25.60;100229.00;;;;2096837;28;20277;-68
2023/09/12 00:35:34;;;;;;;2.63;2.43;;;;;25.60;100245.00;;;;2085939;28;20255;-68
2023/09/12 00:36:34;;;;;;;3.20;2.90;;;;;25.60;100224.00;;;;2095223;28;20218;-68
2023/09/12 00:37:34;;;;;;;3.10;2.80;;;;;25.60;100252.00;;;;2095148;28;20228;-68
2023/09/12 00:38:35;;;;;;;3.50;3.20;;;;;25.60;100255.00;;;;2094995;28;20223;-68
2023/09/12 00:39:35;;;;;;;3.10;2.80;;;;;25.60;100260.00;;;;2094293;28;21070;-68
2023/09/12 00:40:35;;;;;;;3.00;2.80;;;;;25.60;100267.00;;;;2086587;28;20220;-68
2023/09/12 00:41:36;;;;;;;3.00;2.80;;;;;25.60;100280.00;;;;2088092;28;20768;-68
2023/09/12 00:42:36;;;;;;;2.57;2.37;;;;;25.60;100283.00;;;;2082803;28;20223;-68
2023/09/12 00:43:36;;;;;;;3.23;2.93;;;;;25.60;100284.00;;;;2086650;28;20301;-68
2023/09/12 00:44:37;;;;;;;2.97;2.77;;;;;25.60;100292.00;;;;2085673;28;20700;-68
2023/09/12 00:45:37;;;;;;;2.70;2.50;;;;;25.60;100297.00;;;;2077743;28;20217;-68
2023/09/12 00:46:37;;;;;;;2.87;2.67;;;;;25.60;100292.00;;;;2096435;28;20310;-67
2023/09/12 00:47:38;;;;;;;3.30;3.00;;;;;25.70;100290.00;;;;2095488;28;20232;-67
2023/09/12 00:48:38;;;;;;;3.33;3.03;;;;;25.60;100280.00;;;;2085110;28;20293;-68
2023/09/12 00:49:39;;;;;;;2.90;2.60;;;;;25.60;100266.00;;;;2076499;28;20247;-68
2023/09/12 00:50:39;;;;;;;3.20;2.90;;;;;25.60;100258.00;;;;2069638;28;20229;-68
2023/09/12 00:51:39;;;;;;;3.20;2.90;;;;;25.60;100230.00;;;;2078747;28;20221;-68
2023/09/12 00:52:40;;;;;;;2.63;2.43;;;;;25.60;100204.00;;;;2084171;28;20223;-68
2023/09/12 00:53:40;;;;;;;2.70;2.50;;;;;25.60;100192.00;;;;2086853;28;20225;-68
2023/09/12 00:54:40;;;;;;;3.20;2.87;;;;;25.60;100170.00;;;;2089539;28;20243;-68
2023/09/12 00:55:43;;;;;;;2.90;2.70;;;;;25.60;100151.00;;;;2084878;28;20593;-68
2023/09/12 00:56:43;;;;;;;2.97;2.70;;;;;25.60;100145.00;;;;2082403;28;20212;-68
2023/09/12 00:57:44;;;;;;;3.17;2.97;;;;;25.60;100128.00;;;;2087566;28;20969;-68
2023/09/12 00:58:45;;;;;;;3.00;2.80;;;;;25.60;100136.00;;;;2086875;28;20595;-68
2023/09/12 00:59:47;;;;;;;2.80;2.60;;;;;25.60;100104.00;;;;2075263;28;20229;-68
2023/09/12 01:00:47;;;;;;;3.10;2.80;;;;;25.60;100131.00;;;;2068921;28;20460;-68
2023/09/12 01:01:48;;;;;;;3.33;3.03;;;;;25.60;100140.00;;;;2082871;28;21000;-68
2023/09/12 01:02:49;;;;;;;3.50;3.20;;;;;25.60;100138.00;;;;2080567;28;20738;-68
2023/09/12 01:03:50;;;;;;;3.20;2.90;;;;;25.60;100133.00;;;;2086290;28;20216;-68
2023/09/12 01:04:50;;;;;;;2.80;2.50;;;;;25.60;100131.00;;;;2085096;28;20458;-68
2023/09/12 01:05:50;;;;;;;2.70;2.50;;;;;25.60;100097.00;;;;2086208;28;20212;-68
2023/09/12 01:06:51;;;;;;;2.93;2.73;;;;;25.60;100129.00;;;;2082268;28;20216;-68
2023/09/12 01:07:52;;;;;;;2.60;2.40;;;;;25.60;100125.00;;;;2086178;28;20216;-68
2023/09/12 01:08:52;;;;;;;2.67;2.47;;;;;25.60;100128.00;;;;2087512;28;20483;-68
2023/09/12 01:09:53;;;;;;;2.80;2.60;;;;;25.60;100126.00;;;;2086972;28;20240;-68
2023/09/12 01:10:53;;;;;;;3.20;3.00;;;;;25.60;100131.00;;;;2086321;28;20291;-68
2023/09/12 01:11:53;;;;;;;2.73;2.53;;;;;25.60;100128.00;;;;2085732;28;20212;-68
2023/09/12 01:12:54;;;;;;;2.80;2.60;;;;;25.60;100133.00;;;;2082197;28;20209;-69
2023/09/12 01:13:54;;;;;;;3.33;3.03;;;;;25.60;100147.00;;;;2070374;28;20206;-68
2023/09/12 01:14:57;;;;;;;3.93;2.93;;;;;25.60;100149.00;;;;2084865;28;20232;-68
2023/09/12 01:15:57;;;;;;;3.13;2.90;;;;;25.60;100161.00;;;;2086850;28;20227;-68
2023/09/12 01:16:58;;;;;;;2.50;2.30;;;;;25.60;100171.00;;;;2095398;28;21293;-68
2023/09/12 01:17:58;;;;;;;2.83;2.63;;;;;25.60;100178.00;;;;2078259;28;20728;-68
2023/09/12 01:18:58;;;;;;;2.80;2.60;;;;;25.60;100178.00;;;;2078876;28;20218;-68
2023/09/12 01:19:59;;;;;;;2.80;2.60;;;;;25.60;100186.00;;;;2087246;28;20212;-68
2023/09/12 01:21:22;;;;;;;2.80;2.60;;;;;25.60;100183.00;;;;2069448;28;20647;-67
2023/09/12 01:22:54;;;;;;;3.10;2.90;;;;;25.60;100185.00;;;;2084721;28;20228;-67
2023/09/12 01:24:20;;;;;;;3.27;3.07;;;;;25.60;100172.00;;;;2084114;28;20452;-67
2023/09/12 01:25:20;;;;;;;2.97;2.77;;;;;25.60;100175.00;;;;2085059;28;20459;-67
2023/09/12 01:26:38;;;;;;;3.30;3.00;;;;;25.60;100170.00;;;;2076813;28;20462;-67
2023/09/12 01:27:41;;;;;;;3.63;2.80;;;;;25.60;100184.00;;;;2086584;28;20232;-68
2023/09/12 01:28:45;;;;;;;3.03;2.67;;;;;25.60;100183.00;;;;2083243;28;20546;-68
2023/09/12 01:29:45;;;;;;;3.10;2.80;;;;;25.60;100191.00;;;;2078708;28;20456;-68
2023/09/12 01:30:46;;;;;;;2.90;2.30;;;;;25.60;100199.00;;;;2083151;28;20759;-68
2023/09/12 01:31:46;;;;;;;3.03;2.77;;;;;25.60;100193.00;;;;2079105;28;20535;-68
2023/09/12 01:32:47;;;;;;;2.77;2.57;;;;;25.60;100200.00;;;;2059712;28;20220;-68
2023/09/12 01:33:47;;;;;;;2.70;2.50;;;;;25.60;100200.00;;;;2069269;28;20225;-68
2023/09/12 01:34:47;;;;;;;3.37;2.67;;;;;25.60;100185.00;;;;2086705;28;20272;-68
2023/09/12 01:35:48;;;;;;;3.40;3.10;;;;;25.60;100196.00;;;;2068037;28;20261;-68
2023/09/12 01:36:48;;;;;;;3.60;2.87;;;;;25.60;100193.00;;;;2080045;28;20218;-68
2023/09/12 01:37:48;;;;;;;3.00;2.80;;;;;25.60;100201.00;;;;2094582;28;20220;-68
2023/09/12 01:38:49;;;;;;;4.53;3.10;;;;;25.60;100201.00;;;;2095894;28;20212;-68
2023/09/12 01:39:49;;;;;;;2.90;2.70;;;;;25.60;100196.00;;;;2094051;28;20213;-68
2023/09/12 01:40:50;;;;;;;2.93;2.73;;;;;25.60;100198.00;;;;2092271;28;20246;-68
2023/09/12 01:41:51;;;;;;;2.60;2.40;;;;;25.60;100190.00;;;;2095574;28;20304;-68
2023/09/12 01:42:51;;;;;;;3.50;3.20;;;;;25.60;100177.00;;;;2075283;28;20467;-68
2023/09/12 01:43:52;;;;;;;3.20;2.90;;;;;25.60;100185.00;;;;2068504;28;20293;-68
2023/09/12 01:44:55;;;;;;;3.00;2.70;;;;;25.60;100177.00;;;;2078595;28;20219;-68
2023/09/12 01:45:56;;;;;;;3.33;3.03;;;;;25.60;100176.00;;;;2077945;28;20229;-68
2023/09/12 01:46:57;;;;;;;2.93;2.60;;;;;25.60;100175.00;;;;2096016;28;20969;-68
2023/09/12 01:47:58;;;;;;;3.13;2.93;;;;;25.60;100170.00;;;;2093660;28;20447;-68
2023/09/12 01:48:58;;;;;;;2.93;2.63;;;;;25.60;100168.00;;;;2076023;28;20471;-68
2023/09/12 01:49:58;;;;;;;3.20;2.90;;;;;25.60;100166.00;;;;2078275;28;20221;-68
2023/09/12 01:51:00;;;;;;;3.50;3.20;;;;;25.60;100167.00;;;;2060900;28;20229;-68
2023/09/12 01:52:00;;;;;;;3.33;3.03;;;;;25.60;100167.00;;;;2067874;28;20224;-68
2023/09/12 01:53:01;;;;;;;2.90;2.70;;;;;25.60;100177.00;;;;2069693;28;20536;-68
2023/09/12 01:54:01;;;;;;;3.03;2.83;;;;;25.60;100129.00;;;;2072137;28;20217;-68
2023/09/12 01:55:02;;;;;;;4.13;3.17;;;;;25.60;100178.00;;;;2076166;28;20212;-68
2023/09/12 01:56:02;;;;;;;2.90;2.70;;;;;25.60;100191.00;;;;2064454;28;20222;-69
2023/09/12 01:57:03;;;;;;;2.70;2.50;;;;;25.60;100194.00;;;;2086761;28;20204;-68
2023/09/12 01:58:03;;;;;;;3.13;2.83;;;;;25.60;100204.00;;;;2087771;28;20216;-68
2023/09/12 01:59:04;;;;;;;3.47;3.17;;;;;25.60;100164.00;;;;2085276;28;20303;-68
2023/09/12 02:00:05;;;;;;;3.37;3.07;;;;;25.60;100222.00;;;;2086989;28;20212;-68
2023/09/12 02:01:05;;;;;;;3.20;2.90;;;;;25.60;100225.00;;;;2074393;28;20692;-68
2023/09/12 02:02:06;;;;;;;3.57;3.27;;;;;25.60;100230.00;;;;2095751;28;20480;-68
2023/09/12 02:03:07;;;;;;;3.07;2.87;;;;;25.60;100224.00;;;;2097666;28;20216;-68
2023/09/12 02:04:08;;;;;;;3.77;3.47;;;;;25.60;100217.00;;;;2096122;28;20455;-68
2023/09/12 02:05:15;;;;;;;3.27;2.97;;;;;25.60;100201.00;;;;2090610;28;20215;-68
2023/09/12 02:06:15;;;;;;;3.13;2.90;;;;;25.60;100200.00;;;;2081880;28;20459;-68
2023/09/12 02:07:15;;;;;;;3.47;3.17;;;;;25.60;100199.00;;;;2073488;28;20555;-68
2023/09/12 02:08:16;;;;;;;2.70;2.50;;;;;25.60;100187.00;;;;2085296;28;20222;-68
2023/09/12 02:09:16;;;;;;;3.37;2.80;;;;;25.60;100182.00;;;;2087062;28;20228;-68
2023/09/12 02:10:17;;;;;;;3.03;2.83;;;;;25.60;100167.00;;;;2080658;28;20256;-68
2023/09/12 02:11:17;;;;;;;3.43;3.13;;;;;25.60;100172.00;;;;2081825;28;20219;-68
2023/09/12 02:12:17;;;;;;;3.00;2.80;;;;;25.60;100166.00;;;;2095280;28;20284;-68
2023/09/12 02:13:17;;;;;;;2.87;2.63;;;;;25.60;100156.00;;;;2094699;28;20224;-68
2023/09/12 02:14:18;;;;;;;3.60;3.30;;;;;25.60;100158.00;;;;2094346;28;20251;-68
2023/09/12 02:15:18;;;;;;;3.37;3.07;;;;;25.60;100155.00;;;;2095842;28;20232;-68
2023/09/12 02:16:19;;;;;;;2.60;2.40;;;;;25.60;100154.00;;;;2085457;28;20217;-68
2023/09/12 02:17:19;;;;;;;3.20;2.90;;;;;25.60;100150.00;;;;2094462;28;20216;-68
2023/09/12 02:18:19;;;;;;;3.67;3.37;;;;;25.60;100152.00;;;;2095354;28;20224;-68
2023/09/12 02:19:20;;;;;;;3.17;2.87;;;;;25.60;100152.00;;;;2093507;28;20301;-68
2023/09/12 02:20:21;;;;;;;3.37;3.07;;;;;25.60;100168.00;;;;2092371;28;20220;-68
2023/09/12 02:21:21;;;;;;;3.27;3.00;;;;;25.60;100168.00;;;;2084510;28;20580;-68
2023/09/12 02:22:21;;;;;;;3.00;2.80;;;;;25.60;100159.00;;;;2087866;28;20230;-68
2023/09/12 02:23:22;;;;;;;3.43;3.07;;;;;25.60;100179.00;;;;2092100;28;20220;-68
2023/09/12 02:24:23;;;;;;;2.83;2.63;;;;;25.60;100171.00;;;;2095574;28;20281;-68
2023/09/12 02:25:23;;;;;;;3.70;3.10;;;;;25.60;100183.00;;;;2095832;28;20507;-68
2023/09/12 02:26:23;;;;;;;3.20;2.97;;;;;25.60;100178.00;;;;2084702;28;20237;-68
2023/09/12 02:27:24;;;;;;;3.37;3.07;;;;;25.60;100189.00;;;;2099844;28;20227;-68
2023/09/12 02:28:24;;;;;;;2.90;2.70;;;;;25.60;100190.00;;;;2097081;28;20220;-68
2023/09/12 02:29:25;;;;;;;3.67;3.00;;;;;25.60;100192.00;;;;2095882;28;20227;-68
2023/09/12 02:30:25;;;;;;;3.30;3.00;;;;;25.60;100183.00;;;;2092619;28;20231;-68
2023/09/12 02:31:25;;;;;;;3.50;3.20;;;;;25.60;100185.00;;;;2085859;28;20589;-68
2023/09/12 02:32:26;;;;;;;3.30;3.00;;;;;25.60;100178.00;;;;2093769;28;20626;-68
2023/09/12 02:33:26;;;;;;;3.13;2.83;;;;;25.60;100181.00;;;;2093255;28;20245;-68
2023/09/12 02:34:26;;;;;;;3.00;2.80;;;;;25.60;100182.00;;;;2098939;28;20216;-68
2023/09/12 02:35:27;;;;;;;3.07;2.87;;;;;25.60;100178.00;;;;2094344;28;20227;-68
2023/09/12 02:36:28;;;;;;;2.80;2.60;;;;;25.60;100111.00;;;;2085897;28;20231;-68
2023/09/12 02:37:28;;;;;;;3.23;2.93;;;;;25.60;100175.00;;;;2094676;28;20474;-68
2023/09/12 02:38:29;;;;;;;3.33;3.03;;;;;25.60;100180.00;;;;2095570;28;20593;-68
2023/09/12 02:39:29;;;;;;;3.40;3.10;;;;;25.60;100173.00;;;;2095856;28;20578;-68
2023/09/12 02:40:29;;;;;;;3.10;2.90;;;;;25.60;100169.00;;;;2095050;28;20727;-68
2023/09/12 02:41:29;;;;;;;3.50;3.17;;;;;25.60;100181.00;;;;2085901;28;20624;-68
2023/09/12 02:42:30;;;;;;;2.67;2.47;;;;;25.60;100182.00;;;;2095431;28;20582;-68
2023/09/12 02:43:30;;;;;;;4.50;3.20;;;;;25.60;100174.00;;;;2094382;28;20765;-68
2023/09/12 02:44:30;;;;;;;3.37;3.07;;;;;25.60;100183.00;;;;2095436;28;20674;-68
2023/09/12 02:45:31;;;;;;;3.53;3.23;;;;;25.60;100188.00;;;;2095719;28;20216;-68
2023/09/12 02:46:31;;;;;;;3.43;3.13;;;;;25.60;100186.00;;;;2084045;28;20228;-68
2023/09/12 02:47:31;;;;;;;4.27;3.27;;;;;25.60;100189.00;;;;2080938;28;20221;-68
2023/09/12 02:48:32;;;;;;;3.67;3.37;;;;;25.60;100190.00;;;;2097666;28;20232;-68
2023/09/12 02:49:32;;;;;;;3.30;3.00;;;;;25.60;100185.00;;;;2097908;28;20208;-68
2023/09/12 02:50:32;;;;;;;3.60;3.30;;;;;25.60;100196.00;;;;2093019;28;20265;-68
2023/09/12 02:51:33;;;;;;;3.07;2.80;;;;;25.60;100217.00;;;;2077164;28;20225;-68
2023/09/12 02:52:33;;;;;;;3.50;3.20;;;;;25.60;100210.00;;;;2087695;28;20385;-68
2023/09/12 02:53:33;;;;;;;3.47;3.17;;;;;25.60;100207.00;;;;2095791;28;20581;-68
2023/09/12 02:54:34;;;;;;;4.03;3.63;;;;;25.60;100212.00;;;;2095201;28;20910;-68
2023/09/12 02:55:38;;;;;;;3.40;3.10;;;;;25.60;100212.00;;;;2084184;28;20643;-68
2023/09/12 02:56:39;;;;;;;3.30;3.00;;;;;25.60;100217.00;;;;2077402;28;20217;-68
2023/09/12 02:57:39;;;;;;;3.60;3.30;;;;;25.60;100214.00;;;;2079346;28;20464;-68
2023/09/12 02:58:39;;;;;;;4.00;3.33;;;;;25.60;100219.00;;;;2096301;28;20281;-68
2023/09/12 02:59:40;;;;;;;4.07;3.67;;;;;25.60;100224.00;;;;2095772;28;20228;-68
2023/09/12 03:00:40;;;;;;;3.80;3.50;;;;;25.60;100236.00;;;;2085293;28;20226;-68
2023/09/12 03:01:41;;;;;;;4.43;4.03;;;;;25.60;100228.00;;;;2092534;28;20211;-68
2023/09/12 03:02:41;;;;;;;3.70;3.40;;;;;25.60;100223.00;;;;2095493;28;20279;-68
2023/09/12 03:03:41;;;;;;;3.40;3.10;;;;;25.60;100221.00;;;;2095211;28;20251;-68
2023/09/12 03:04:42;;;;;;;4.20;3.80;;;;;25.60;100227.00;;;;2096048;28;21005;-68
2023/09/12 03:05:42;;;;;;;3.30;3.00;;;;;25.60;100221.00;;;;2084249;28;20216;-68
2023/09/12 03:06:43;;;;;;;3.80;3.50;;;;;25.60;100229.00;;;;2096001;28;20640;-68
2023/09/12 03:07:44;;;;;;;3.53;3.23;;;;;25.60;100228.00;;;;2095108;28;20254;-68
2023/09/12 03:08:44;;;;;;;3.70;3.30;;;;;25.60;100223.00;;;;2094964;28;20213;-68
2023/09/12 03:09:48;;;;;;;3.40;3.10;;;;;25.60;100215.00;;;;2096026;28;21563;-68
2023/09/12 03:10:56;;;;;;;4.40;3.10;;;;;25.60;100227.00;;;;2086004;28;20307;-68
2023/09/12 03:11:56;;;;;;;4.37;3.97;;;;;25.60;100207.00;;;;2095800;28;20450;-68
2023/09/12 03:12:56;;;;;;;4.23;3.47;;;;;25.60;100201.00;;;;2090543;28;20995;-68
2023/09/12 03:13:56;;;;;;;3.83;3.43;;;;;25.60;100181.00;;;;2094537;28;20681;-68
2023/09/12 03:14:57;;;;;;;3.90;3.60;;;;;25.50;100171.00;;;;2093165;28;20708;-68
2023/09/12 03:15:57;;;;;;;3.80;3.50;;;;;25.50;100157.00;;;;2077474;28;20762;-68
2023/09/12 03:16:57;;;;;;;4.30;3.90;;;;;25.60;100086.00;;;;2095604;28;20673;-68
2023/09/12 03:17:58;;;;;;;3.70;3.40;;;;;25.60;100139.00;;;;2086120;28;20681;-68
2023/09/12 03:19:00;;;;;;;4.30;3.90;;;;;25.50;100128.00;;;;2086637;28;20343;-68
2023/09/12 03:20:01;;;;;;;3.50;3.20;;;;;25.60;100128.00;;;;2092954;28;20232;-68
2023/09/12 03:21:01;;;;;;;4.20;3.80;;;;;25.50;100137.00;;;;2085060;28;20982;-68
2023/09/12 03:22:01;;;;;;;3.90;3.60;;;;;25.60;100126.00;;;;2086874;28;20212;-68
2023/09/12 03:23:02;;;;;;;3.57;3.27;;;;;25.60;100136.00;;;;2084956;28;20204;-68
2023/09/12 03:24:02;;;;;;;4.07;3.70;;;;;25.60;100139.00;;;;2095678;28;20211;-68
2023/09/12 03:25:03;;;;;;;3.80;3.50;;;;;25.60;100137.00;;;;2093968;28;20211;-68
2023/09/12 03:26:04;;;;;;;4.00;3.60;;;;;25.60;100095.00;;;;2089178;28;20311;-68
2023/09/12 03:27:04;;;;;;;3.90;3.57;;;;;25.60;100132.00;;;;2094877;28;20462;-68
2023/09/12 03:28:05;;;;;;;3.47;3.17;;;;;25.60;100134.00;;;;2086293;28;20248;-68
2023/09/12 03:29:05;;;;;;;3.90;3.60;;;;;25.60;100139.00;;;;2086732;28;20870;-68
2023/09/12 03:30:06;;;;;;;4.60;4.07;;;;;25.60;100144.00;;;;2094515;28;20216;-68
2023/09/12 03:31:08;;;;;;;5.00;3.30;;;;;25.60;100149.00;;;;2089436;28;20587;-68
2023/09/12 03:32:08;;;;;;;4.30;3.90;;;;;25.50;100150.00;;;;2084394;28;20558;-68
2023/09/12 03:33:08;;;;;;;3.57;3.27;;;;;25.50;100162.00;;;;2086577;28;20963;-68
2023/09/12 03:34:09;;;;;;;4.40;4.03;;;;;25.60;100159.00;;;;2097083;28;20215;-68
2023/09/12 03:35:09;;;;;;;4.00;3.60;;;;;25.60;100151.00;;;;2094967;28;20223;-68
2023/09/12 03:36:09;;;;;;;4.47;4.07;;;;;25.60;100155.00;;;;2076659;28;20228;-68
2023/09/12 03:37:10;;;;;;;4.00;3.70;;;;;25.60;100157.00;;;;2085306;28;20275;-68
2023/09/12 03:38:10;;;;;;;3.53;3.23;;;;;25.60;100159.00;;;;2094251;28;20329;-68
2023/09/12 03:39:13;;;;;;;3.53;3.23;;;;;25.60;100153.00;;;;2097837;28;20208;-68
2023/09/12 03:40:13;;;;;;;4.10;3.57;;;;;25.60;100144.00;;;;2091220;28;20679;-68
2023/09/12 03:41:13;;;;;;;4.30;3.90;;;;;25.60;100136.00;;;;2083574;28;20474;-68
2023/09/12 03:42:13;;;;;;;4.20;3.30;;;;;25.60;100133.00;;;;2095592;28;20280;-68
2023/09/12 03:43:14;;;;;;;4.30;3.90;;;;;25.60;100140.00;;;;2094842;28;20230;-68
2023/09/12 03:44:14;;;;;;;4.20;3.90;;;;;25.60;100131.00;;;;2095089;28;20702;-68
2023/09/12 03:45:14;;;;;;;4.30;3.90;;;;;25.60;100130.00;;;;2094413;28;20615;-68
2023/09/12 03:46:15;;;;;;;4.17;3.77;;;;;25.60;100137.00;;;;2084763;28;20573;-68
2023/09/12 03:47:15;;;;;;;3.83;3.43;;;;;25.60;100130.00;;;;2098122;28;20231;-68
2023/09/12 03:48:15;;;;;;;3.67;3.37;;;;;25.60;100137.00;;;;2095081;28;20262;-68
2023/09/12 03:49:16;;;;;;;4.47;4.07;;;;;25.60;100136.00;;;;2095604;28;20219;-68
2023/09/12 03:50:16;;;;;;;4.23;3.83;;;;;25.60;100136.00;;;;2095481;28;20253;-68
2023/09/12 03:51:16;;;;;;;3.70;3.40;;;;;25.60;100139.00;;;;2083888;28;20221;-68
2023/09/12 03:52:17;;;;;;;3.63;3.33;;;;;25.60;100128.00;;;;2101366;28;20222;-68
2023/09/12 03:53:18;;;;;;;4.50;3.60;;;;;25.60;100132.00;;;;2093574;28;20269;-68
2023/09/12 03:54:18;;;;;;;4.30;3.90;;;;;25.60;100129.00;;;;2095832;28;20458;-68
2023/09/12 03:55:18;;;;;;;4.60;4.10;;;;;25.60;100122.00;;;;2098875;28;20208;-68
2023/09/12 03:56:20;;;;;;;4.00;3.70;;;;;25.50;100122.00;;;;2084449;28;20220;-68
2023/09/12 03:57:20;;;;;;;4.10;3.80;;;;;25.60;100086.00;;;;2095689;28;20266;-68
2023/09/12 03:58:21;;;;;;;3.93;3.63;;;;;25.60;100123.00;;;;2077879;28;20468;-68
2023/09/12 03:59:21;;;;;;;3.90;3.60;;;;;25.60;100119.00;;;;2078587;28;20240;-68
2023/09/12 04:00:22;;;;;;;4.03;3.60;;;;;25.60;100117.00;;;;2099220;28;20273;-68
2023/09/12 04:01:22;;;;;;;4.70;4.30;;;;;25.50;100111.00;;;;2087321;28;20224;-68
2023/09/12 04:02:22;;;;;;;4.40;4.00;;;;;25.60;100106.00;;;;2099739;28;20220;-68
2023/09/12 04:03:23;;;;;;;4.30;3.90;;;;;25.60;100101.00;;;;2094272;28;20258;-68
2023/09/12 04:04:23;;;;;;;4.23;3.90;;;;;25.60;100097.00;;;;2083245;28;20220;-68
2023/09/12 04:05:25;;;;;;;4.13;3.73;;;;;25.50;100091.00;;;;2086792;28;20208;-68
2023/09/12 04:06:25;;;;;;;4.07;3.77;;;;;25.60;100097.00;;;;2083104;28;20693;-68
2023/09/12 04:07:25;;;;;;;4.43;4.03;;;;;25.50;100094.00;;;;2091189;28;20475;-68
2023/09/12 04:08:26;;;;;;;4.10;3.67;;;;;25.50;100091.00;;;;2094813;28;20227;-68
2023/09/12 04:09:27;;;;;;;4.60;4.20;;;;;25.50;100090.00;;;;2096536;28;20216;-67
2023/09/12 04:10:27;;;;;;;4.33;3.93;;;;;25.60;100097.00;;;;2094893;28;20613;-67
2023/09/12 04:11:29;;;;;;;4.30;3.83;;;;;25.50;100091.00;;;;2086454;28;20469;-67
2023/09/12 04:12:29;;;;;;;4.10;3.70;;;;;25.60;100102.00;;;;2094421;28;20581;-67
2023/09/12 04:13:30;;;;;;;3.87;3.57;;;;;25.60;100093.00;;;;2095485;28;20454;-67
2023/09/12 04:14:30;;;;;;;3.73;3.43;;;;;25.50;100088.00;;;;2094585;28;22052;-67
2023/09/12 04:15:31;;;;;;;4.00;3.70;;;;;25.60;100091.00;;;;2094067;28;20486;-67
2023/09/12 04:16:31;;;;;;;4.77;4.30;;;;;25.50;100098.00;;;;2087916;28;20212;-67
2023/09/12 04:17:31;;;;;;;4.30;3.90;;;;;25.60;100089.00;;;;2095170;28;20227;-67
2023/09/12 04:18:32;;;;;;;3.90;3.60;;;;;25.60;100092.00;;;;2087742;28;20229;-67
2023/09/12 04:19:32;;;;;;;4.13;3.73;;;;;25.60;100089.00;;;;2078379;28;20213;-67
2023/09/12 04:20:32;;;;;;;4.37;3.97;;;;;25.60;100049.00;;;;2076634;28;20248;-67
2023/09/12 04:21:33;;;;;;;4.07;3.77;;;;;25.60;100097.00;;;;2071488;28;20236;-67
2023/09/12 04:22:33;;;;;;;4.33;4.00;;;;;25.60;100092.00;;;;2086745;28;20864;-67
2023/09/12 04:23:34;;;;;;;4.23;3.83;;;;;25.60;100096.00;;;;2091377;28;20220;-67
2023/09/12 04:24:34;;;;;;;4.23;3.83;;;;;25.60;100087.00;;;;2096604;28;20227;-67
2023/09/12 04:25:34;;;;;;;4.00;3.70;;;;;25.60;100087.00;;;;2081658;28;20224;-67
2023/09/12 04:26:35;;;;;;;4.50;4.10;;;;;25.60;100094.00;;;;2094059;28;20607;-67
2023/09/12 04:27:35;;;;;;;3.97;3.67;;;;;25.60;100086.00;;;;2095678;28;20719;-67
2023/09/12 04:28:36;;;;;;;4.20;3.90;;;;;25.60;100089.00;;;;2094998;28;20595;-67
2023/09/12 04:29:36;;;;;;;5.00;4.47;;;;;25.50;100087.00;;;;2096779;28;20290;-67
2023/09/12 04:30:36;;;;;;;3.97;3.57;;;;;25.50;100089.00;;;;2084956;28;20230;-67
2023/09/12 04:31:37;;;;;;;4.43;4.13;;;;;25.60;100088.00;;;;2091116;28;20217;-67
2023/09/12 04:32:37;;;;;;;3.90;3.60;;;;;25.50;100088.00;;;;2087668;28;20236;-67
2023/09/12 04:33:37;;;;;;;4.40;4.00;;;;;25.60;100083.00;;;;2096630;28;20220;-67
2023/09/12 04:34:38;;;;;;;4.77;3.77;;;;;25.60;100084.00;;;;2099654;28;20297;-67
2023/09/12 04:35:38;;;;;;;4.13;3.83;;;;;25.50;100083.00;;;;2085442;28;20268;-67
2023/09/12 04:36:38;;;;;;;4.10;3.77;;;;;25.50;100084.00;;;;2087012;28;20678;-67
2023/09/12 04:37:39;;;;;;;4.40;4.00;;;;;25.60;100082.00;;;;2089534;28;20601;-67
2023/09/12 04:38:39;;;;;;;4.07;3.77;;;;;25.60;100079.00;;;;2096173;28;20697;-67
2023/09/12 04:39:39;;;;;;;4.80;4.40;;;;;25.60;100090.00;;;;2096841;28;20243;-68
2023/09/12 04:40:40;;;;;;;4.57;4.17;;;;;25.60;100090.00;;;;2085522;28;20216;-68
2023/09/12 04:41:40;;;;;;;4.50;4.10;;;;;25.60;100091.00;;;;2096480;28;20212;-68
2023/09/12 04:42:40;;;;;;;4.40;4.00;;;;;25.60;100094.00;;;;2094976;28;20220;-68
2023/09/12 04:43:41;;;;;;;4.27;3.93;;;;;25.60;100092.00;;;;2095974;28;20224;-68
2023/09/12 04:44:41;;;;;;;4.90;4.43;;;;;25.60;100101.00;;;;2086849;28;20227;-68
2023/09/12 04:45:42;;;;;;;4.00;3.70;;;;;25.60;100106.00;;;;2077586;28;20212;-68
2023/09/12 04:46:42;;;;;;;4.07;3.77;;;;;25.60;100106.00;;;;2094839;28;20297;-68
2023/09/12 04:47:42;;;;;;;4.83;4.13;;;;;25.50;100105.00;;;;2094221;28;20220;-68
2023/09/12 04:48:43;;;;;;;4.23;3.93;;;;;25.60;100110.00;;;;2094377;28;20265;-68
2023/09/12 04:49:44;;;;;;;3.93;3.53;;;;;25.60;100109.00;;;;2090421;28;20220;-68
2023/09/12 04:50:44;;;;;;;3.73;3.40;;;;;25.60;100105.00;;;;2082673;28;20301;-68
2023/09/12 04:51:44;;;;;;;4.77;4.37;;;;;25.60;100116.00;;;;2096095;28;20235;-68
2023/09/12 04:52:45;;;;;;;3.90;3.60;;;;;25.60;100105.00;;;;2096376;28;20208;-68
2023/09/12 04:53:46;;;;;;;4.17;3.83;;;;;25.50;100110.00;;;;2096329;28;20223;-68
2023/09/12 04:54:46;;;;;;;4.47;4.10;;;;;25.50;100106.00;;;;2098710;28;20216;-68
2023/09/12 04:55:47;;;;;;;4.17;3.87;;;;;25.60;100109.00;;;;2088425;28;20463;-68
2023/09/12 04:56:47;;;;;;;4.50;4.10;;;;;25.60;100116.00;;;;2095771;28;20212;-68
2023/09/12 04:57:48;;;;;;;3.87;3.50;;;;;25.50;100118.00;;;;2096554;28;20219;-68
2023/09/12 04:58:48;;;;;;;4.20;3.80;;;;;25.60;100117.00;;;;2096306;28;20277;-68
2023/09/12 04:59:50;;;;;;;4.73;4.27;;;;;25.50;100115.00;;;;2095556;28;20458;-68
2023/09/12 05:00:50;;;;;;;4.13;3.83;;;;;25.50;100116.00;;;;2086029;28;20718;-68